Time,TemperatureF,DewpointF,PressureIn,WindDirection,WindDirectionDegrees,WindSpeedMPH,WindSpeedGustMPH,Humidity,HourlyPrecipIn,Conditions,Clouds,dailyrainin,SoftwareType,DateUTC
2013-04-20 00:06:00,55.4,44.0,30.14,WNW,297,1.0,4.0,65,0.00,,,0.00,weatherlink.com 1.10,2013-04-20 07:06:00,
2013-04-20 00:21:00,54.9,43.0,30.14,SE,143,1.0,4.0,65,0.00,,,0.00,weatherlink.com 1.10,2013-04-20 07:21:00,
2013-04-20 00:36:00,54.7,43.0,30.14,SSW,197,0.0,3.0,66,0.00,,,0.00,weatherlink.com 1.10,2013-04-20 07:36:00,
2013-04-20 00:51:00,54.2,43.0,30.14,North,358,1.0,3.0,67,0.00,,,0.00,weatherlink.com 1.10,2013-04-20 07:51:00,
2013-04-20 01:06:00,54.0,44.0,30.15,SE,132,0.0,6.0,68,0.00,,,0.00,weatherlink.com 1.10,2013-04-20 08:06:00,
2013-04-20 01:21:00,53.6,43.0,30.15,SSE,162,1.0,3.0,68,0.00,,,0.00,weatherlink.com 1.10,2013-04-20 08:21:00,
2013-04-20 01:36:00,53.4,43.0,30.15,SE,141,1.0,5.0,68,0.00,,,0.00,weatherlink.com 1.10,2013-04-20 08:36:00,
2013-04-20 01:51:00,53.1,43.0,30.15,West,260,0.0,5.0,69,0.00,,,0.00,weatherlink.com 1.10,2013-04-20 08:51:00,
2013-04-20 02:06:00,53.0,43.0,30.15,South,172,0.0,5.0,68,0.00,,,0.00,weatherlink.com 1.10,2013-04-20 09:06:00,
2013-04-20 02:21:00,52.7,43.0,30.15,ENE,75,0.0,5.0,69,0.00,,,0.00,weatherlink.com 1.10,2013-04-20 09:21:00,
2013-04-20 02:36:00,52.2,42.0,30.15,NNE,22,1.0,3.0,69,0.00,,,0.00,weatherlink.com 1.10,2013-04-20 09:36:00,
2013-04-20 02:51:00,51.8,42.0,30.15,South,188,0.0,3.0,70,0.00,,,0.00,weatherlink.com 1.10,2013-04-20 09:51:00,
2013-04-20 03:06:00,51.6,42.0,30.14,WSW,249,0.0,4.0,71,0.00,,,0.00,weatherlink.com 1.10,2013-04-20 10:06:00,
2013-04-20 03:21:00,51.7,42.0,30.14,SW,233,0.0,3.0,70,0.00,,,0.00,weatherlink.com 1.10,2013-04-20 10:21:00,
2013-04-20 03:36:00,51.3,42.0,30.14,SSE,165,1.0,3.0,70,0.00,,,0.00,weatherlink.com 1.10,2013-04-20 10:36:00,
2013-04-20 03:51:00,51.0,42.0,30.14,SE,142,2.0,3.0,70,0.00,,,0.00,weatherlink.com 1.10,2013-04-20 10:51:00,
2013-04-20 04:06:00,50.9,42.0,30.15,WNW,300,0.0,3.0,71,0.00,,,0.00,weatherlink.com 1.10,2013-04-20 11:06:00,
2013-04-20 04:22:00,50.4,41.0,30.15,West,271,0.0,4.0,71,0.00,,,0.00,weatherlink.com 1.10,2013-04-20 11:22:00,
2013-04-20 04:37:00,50.5,42.0,30.15,SE,137,0.0,2.0,72,0.00,,,0.00,weatherlink.com 1.10,2013-04-20 11:37:00,
2013-04-20 04:52:00,50.2,41.0,30.15,ESE,113,0.0,3.0,72,0.00,,,0.00,weatherlink.com 1.10,2013-04-20 11:52:00,
2013-04-20 05:07:00,50.2,42.0,30.14,ESE,117,1.0,5.0,73,0.00,,,0.00,weatherlink.com 1.10,2013-04-20 12:07:00,
2013-04-20 05:22:00,50.0,42.0,30.14,South,176,4.0,4.0,73,0.00,,,0.00,weatherlink.com 1.10,2013-04-20 12:22:00,
2013-04-20 05:37:00,49.7,41.0,30.14,South,184,2.0,4.0,73,0.00,,,0.00,weatherlink.com 1.10,2013-04-20 12:37:00,
2013-04-20 05:52:00,49.9,40.0,30.14,SW,219,1.0,4.0,70,0.00,,,0.00,weatherlink.com 1.10,2013-04-20 12:52:00,
2013-04-20 06:07:00,49.5,40.0,30.14,SSE,167,1.0,3.0,69,0.00,,,0.00,weatherlink.com 1.10,2013-04-20 13:07:00,
2013-04-20 06:22:00,49.8,39.0,30.14,SW,214,1.0,3.0,67,0.00,,,0.00,weatherlink.com 1.10,2013-04-20 13:22:00,
2013-04-20 06:37:00,50.1,39.0,30.14,SE,132,1.0,3.0,67,0.00,,,0.00,weatherlink.com 1.10,2013-04-20 13:37:00,
2013-04-20 06:52:00,50.1,39.0,30.15,SE,143,1.0,3.0,67,0.00,,,0.00,weatherlink.com 1.10,2013-04-20 13:52:00,
2013-04-20 07:07:00,50.7,40.0,30.15,SE,140,0.0,3.0,66,0.00,,,0.00,weatherlink.com 1.10,2013-04-20 14:07:00,
2013-04-20 07:22:00,52.7,39.0,30.15,NW,323,0.0,3.0,60,0.00,,,0.00,weatherlink.com 1.10,2013-04-20 14:22:00,
2013-04-20 07:37:00,55.3,40.0,30.15,ESE,110,0.0,1.0,57,0.00,,,0.00,weatherlink.com 1.10,2013-04-20 14:37:00,
2013-04-20 07:52:00,55.3,38.0,30.15,NNW,343,1.0,4.0,53,0.00,,,0.00,weatherlink.com 1.10,2013-04-20 14:52:00,
2013-04-20 08:07:00,56.3,39.0,30.15,NE,51,2.0,3.0,52,0.00,,,0.00,weatherlink.com 1.10,2013-04-20 15:07:00,
2013-04-20 08:22:00,57.3,36.0,30.15,SE,140,0.0,6.0,46,0.00,,,0.00,weatherlink.com 1.10,2013-04-20 15:22:00,
2013-04-20 08:37:00,59.2,37.0,30.15,North,354,1.0,4.0,44,0.00,,,0.00,weatherlink.com 1.10,2013-04-20 15:37:00,
2013-04-20 08:52:00,61.0,39.0,30.15,SE,131,1.0,5.0,44,0.00,,,0.00,weatherlink.com 1.10,2013-04-20 15:52:00,
2013-04-20 09:07:00,61.7,39.0,30.15,NE,37,0.0,6.0,43,0.00,,,0.00,weatherlink.com 1.10,2013-04-20 16:07:00,
2013-04-20 09:22:00,62.5,39.0,30.14,NNW,339,3.0,7.0,42,0.00,,,0.00,weatherlink.com 1.10,2013-04-20 16:22:00,
2013-04-20 09:37:00,64.0,37.0,30.14,South,177,1.0,6.0,37,0.00,,,0.00,weatherlink.com 1.10,2013-04-20 16:37:00,
2013-04-20 09:52:00,65.3,35.0,30.14,East,94,2.0,8.0,33,0.00,,,0.00,weatherlink.com 1.10,2013-04-20 16:52:00,
2013-04-20 10:07:00,66.5,34.0,30.13,ENE,74,1.0,10.0,30,0.00,,,0.00,weatherlink.com 1.10,2013-04-20 17:07:00,
2013-04-20 10:22:00,67.5,36.0,30.13,WSW,240,1.0,7.0,31,0.00,,,0.00,weatherlink.com 1.10,2013-04-20 17:22:00,
2013-04-20 10:38:00,68.4,34.0,30.13,NE,34,0.0,7.0,28,0.00,,,0.00,weatherlink.com 1.10,2013-04-20 17:38:00,
2013-04-20 10:53:00,69.0,32.0,30.13,NW,309,1.0,9.0,25,0.00,,,0.00,weatherlink.com 1.10,2013-04-20 17:53:00,
2013-04-20 11:08:00,69.8,29.0,30.14,North,8,5.0,11.0,22,0.00,,,0.00,weatherlink.com 1.10,2013-04-20 18:08:00,
2013-04-20 11:23:00,70.5,33.0,30.13,SE,140,3.0,8.0,25,0.00,,,0.00,weatherlink.com 1.10,2013-04-20 18:23:00,
2013-04-20 11:38:00,70.7,32.0,30.13,NNW,330,5.0,10.0,24,0.00,,,0.00,weatherlink.com 1.10,2013-04-20 18:38:00,
2013-04-20 11:53:00,71.4,34.0,30.12,NE,36,1.0,7.0,25,0.00,,,0.00,weatherlink.com 1.10,2013-04-20 18:53:00,
2013-04-20 12:08:00,71.9,34.0,30.12,NW,321,0.0,6.0,25,0.00,,,0.00,weatherlink.com 1.10,2013-04-20 19:08:00,
2013-04-20 12:23:00,72.7,30.0,30.11,WNW,296,5.0,7.0,21,0.00,,,0.00,weatherlink.com 1.10,2013-04-20 19:23:00,
2013-04-20 12:38:00,73.4,31.0,30.11,ENE,74,5.0,7.0,21,0.00,,,0.00,weatherlink.com 1.10,2013-04-20 19:38:00,
2013-04-20 12:53:00,74.5,33.0,30.11,ENE,66,2.0,7.0,22,0.00,,,0.00,weatherlink.com 1.10,2013-04-20 19:53:00,
2013-04-20 13:08:00,75.5,33.0,30.10,ENE,70,5.0,6.0,21,0.00,,,0.00,weatherlink.com 1.10,2013-04-20 20:08:00,
2013-04-20 13:23:00,75.3,29.0,30.09,SW,218,0.0,7.0,18,0.00,,,0.00,weatherlink.com 1.10,2013-04-20 20:23:00,
2013-04-20 13:38:00,76.8,26.0,30.08,SSE,155,0.0,4.0,15,0.00,,,0.00,weatherlink.com 1.10,2013-04-20 20:38:00,
2013-04-20 13:53:00,77.5,26.0,30.08,NE,55,1.0,6.0,15,0.00,,,0.00,weatherlink.com 1.10,2013-04-20 20:53:00,
2013-04-20 14:08:00,78.1,27.0,30.08,NNW,338,3.0,4.0,15,0.00,,,0.00,weatherlink.com 1.10,2013-04-20 21:08:00,
2013-04-20 14:23:00,78.7,27.0,30.07,NE,41,2.0,5.0,15,0.00,,,0.00,weatherlink.com 1.10,2013-04-20 21:23:00,
2013-04-20 14:38:00,77.9,23.0,30.07,East,95,2.0,6.0,13,0.00,,,0.00,weatherlink.com 1.10,2013-04-20 21:38:00,
2013-04-20 14:53:00,79.2,26.0,30.07,North,1,3.0,5.0,14,0.00,,,0.00,weatherlink.com 1.10,2013-04-20 21:53:00,
2013-04-20 15:08:00,79.3,26.0,30.06,ENE,64,1.0,6.0,14,0.00,,,0.00,weatherlink.com 1.10,2013-04-20 22:08:00,
2013-04-20 15:23:00,79.7,23.0,30.06,NE,39,5.0,6.0,12,0.00,,,0.00,weatherlink.com 1.10,2013-04-20 22:23:00,
2013-04-20 15:38:00,79.8,23.0,30.05,SSE,160,1.0,3.0,12,0.00,,,0.00,weatherlink.com 1.10,2013-04-20 22:38:00,
2013-04-20 15:53:00,80.3,23.0,30.04,NW,320,2.0,4.0,12,0.00,,,0.00,weatherlink.com 1.10,2013-04-20 22:53:00,
2013-04-20 16:09:00,80.7,23.0,30.04,ESE,105,2.0,5.0,12,0.00,,,0.00,weatherlink.com 1.10,2013-04-20 23:09:00,
2013-04-20 16:24:00,79.5,23.0,30.04,NE,46,0.0,6.0,12,0.00,,,0.00,weatherlink.com 1.10,2013-04-20 23:24:00,
2013-04-20 16:39:00,79.4,22.0,30.03,SE,135,1.0,5.0,12,0.00,,,0.00,weatherlink.com 1.10,2013-04-20 23:39:00,
2013-04-20 16:54:00,79.6,23.0,30.03,North,6,1.0,5.0,12,0.00,,,0.00,weatherlink.com 1.10,2013-04-20 23:54:00,
2013-04-20 17:09:00,78.7,26.0,30.02,NW,325,0.0,3.0,14,0.00,,,0.00,weatherlink.com 1.10,2013-04-21 00:09:00,
2013-04-20 17:24:00,77.7,35.0,30.02,WNW,300,1.0,4.0,21,0.00,,,0.00,weatherlink.com 1.10,2013-04-21 00:24:00,
2013-04-20 17:39:00,76.6,41.0,30.02,East,87,1.0,5.0,28,0.00,,,0.00,weatherlink.com 1.10,2013-04-21 00:39:00,
2013-04-20 17:54:00,75.4,40.0,30.02,WNW,295,0.0,4.0,28,0.00,,,0.00,weatherlink.com 1.10,2013-04-21 00:54:00,
2013-04-20 18:09:00,74.0,42.0,30.02,NE,51,0.0,1.0,32,0.00,,,0.00,weatherlink.com 1.10,2013-04-21 01:09:00,
2013-04-20 18:24:00,72.8,43.0,30.02,ENE,70,1.0,2.0,34,0.00,,,0.00,weatherlink.com 1.10,2013-04-21 01:24:00,
2013-04-20 18:39:00,71.5,39.0,30.02,NNW,340,1.0,3.0,31,0.00,,,0.00,weatherlink.com 1.10,2013-04-21 01:39:00,
2013-04-20 18:54:00,70.3,43.0,30.02,SE,146,1.0,1.0,37,0.00,,,0.00,weatherlink.com 1.10,2013-04-21 01:54:00,
2013-04-20 19:09:00,69.1,44.0,30.02,SE,129,1.0,1.0,40,0.00,,,0.00,weatherlink.com 1.10,2013-04-21 02:09:00,
2013-04-20 19:24:00,68.1,44.0,30.02,SE,139,0.0,1.0,42,0.00,,,0.00,weatherlink.com 1.10,2013-04-21 02:24:00,
2013-04-20 19:39:00,66.6,44.0,30.03,SE,135,0.0,1.0,45,0.00,,,0.00,weatherlink.com 1.10,2013-04-21 02:39:00,
2013-04-20 19:54:00,65.1,44.0,30.03,WSW,250,0.0,1.0,46,0.00,,,0.00,weatherlink.com 1.10,2013-04-21 02:54:00,
2013-04-20 20:09:00,64.0,43.0,30.03,WSW,250,0.0,0.0,47,0.00,,,0.00,weatherlink.com 1.10,2013-04-21 03:09:00,
2013-04-20 20:24:00,62.9,42.0,30.04,WSW,250,0.0,1.0,47,0.00,,,0.00,weatherlink.com 1.10,2013-04-21 03:24:00,
2013-04-20 20:39:00,62.5,41.0,30.04,WSW,248,0.0,1.0,45,0.00,,,0.00,weatherlink.com 1.10,2013-04-21 03:39:00,
2013-04-20 20:54:00,62.1,40.0,30.05,WSW,246,0.0,1.0,45,0.00,,,0.00,weatherlink.com 1.10,2013-04-21 03:54:00,
2013-04-20 21:09:00,61.7,40.0,30.05,West,265,0.0,0.0,45,0.00,,,0.00,weatherlink.com 1.10,2013-04-21 04:09:00,
2013-04-20 21:24:00,61.1,41.0,30.05,SW,236,0.0,0.0,47,0.00,,,0.00,weatherlink.com 1.10,2013-04-21 04:24:00,
2013-04-20 21:40:00,60.8,40.0,30.06,SSE,150,0.0,0.0,47,0.00,,,0.00,weatherlink.com 1.10,2013-04-21 04:40:00,
2013-04-20 21:54:00,60.6,40.0,30.06,SSW,197,0.0,0.0,47,0.00,,,0.00,weatherlink.com 1.10,2013-04-21 04:54:00,
2013-04-20 22:09:00,60.3,41.0,30.06,SE,139,0.0,0.0,49,0.00,,,0.00,weatherlink.com 1.10,2013-04-21 05:09:00,
2013-04-20 22:24:00,60.1,41.0,30.06,SE,139,0.0,0.0,49,0.00,,,0.00,weatherlink.com 1.10,2013-04-21 05:24:00,
2013-04-20 22:39:00,59.8,41.0,30.06,SE,141,0.0,0.0,50,0.00,,,0.00,weatherlink.com 1.10,2013-04-21 05:39:00,
2013-04-20 22:54:00,59.5,42.0,30.05,SE,141,0.0,0.0,52,0.00,,,0.00,weatherlink.com 1.10,2013-04-21 05:54:00,
2013-04-20 23:09:00,58.8,41.0,30.05,SE,141,0.0,0.0,53,0.00,,,0.00,weatherlink.com 1.10,2013-04-21 06:09:00,
2013-04-20 23:24:00,58.3,41.0,30.05,SSE,167,0.0,0.0,54,0.00,,,0.00,weatherlink.com 1.10,2013-04-21 06:24:00,
2013-04-20 23:39:00,58.0,42.0,30.05,South,170,0.0,0.0,55,0.00,,,0.00,weatherlink.com 1.10,2013-04-21 06:39:00,
2013-04-20 23:54:00,57.8,42.0,30.05,South,186,0.0,0.0,56,0.00,,,0.00,weatherlink.com 1.10,2013-04-21 06:54:00,